createdAt,value
2023-02-12T00:01:25.566Z,2.90
2023-02-12T00:03:53.554Z,2.87
2023-02-12T00:06:21.392Z,2.83
2023-02-12T00:08:51.354Z,2.75
2023-02-12T00:11:22.676Z,2.65
2023-02-12T00:13:50.842Z,2.54
2023-02-12T00:16:22.190Z,2.45
2023-02-12T00:18:52.977Z,2.37
2023-02-12T00:21:22.391Z,2.30
2023-02-12T00:23:50.158Z,2.24
2023-02-12T00:26:20.548Z,2.18
2023-02-12T00:28:50.654Z,2.14
2023-02-12T00:31:22.284Z,2.10
2023-02-12T00:33:50.901Z,2.06
2023-02-12T00:36:24.707Z,2.03
2023-02-12T00:38:54.444Z,2.01
2023-02-12T00:41:22.882Z,1.98
2023-02-12T00:43:51.163Z,1.96
2023-02-12T00:46:19.265Z,1.94
2023-02-12T00:48:47.166Z,1.92
2023-02-12T00:51:15.065Z,1.91
2023-02-12T00:53:42.901Z,1.90
2023-02-12T00:56:10.799Z,1.89
2023-02-12T00:58:38.602Z,1.88
2023-02-12T01:01:08.014Z,1.85
2023-02-12T01:03:36.934Z,1.84
2023-02-12T01:06:05.971Z,1.81
2023-02-12T01:08:33.747Z,1.80
2023-02-12T01:11:03.786Z,1.79
2023-02-12T01:13:33.708Z,1.79
2023-02-12T01:16:16.424Z,1.78
2023-02-12T01:18:45.307Z,1.76
2023-02-12T01:21:19.243Z,1.75
2023-02-12T01:23:47.307Z,1.73
2023-02-12T01:26:17.022Z,1.71
2023-02-12T01:28:48.775Z,1.68
2023-02-12T01:31:19.306Z,1.67
2023-02-12T01:33:52.283Z,1.65
2023-02-12T01:36:20.503Z,1.63
2023-02-12T01:38:50.165Z,1.62
2023-02-12T01:41:30.047Z,1.61
2023-02-12T01:44:30.908Z,1.60
2023-02-12T01:47:01.422Z,1.58
2023-02-12T01:49:37.909Z,1.56
2023-02-12T01:52:20.161Z,1.55
2023-02-12T01:54:50.372Z,1.54
2023-02-12T01:57:19.048Z,1.53
2023-02-12T01:59:51.200Z,1.54
2023-02-12T02:02:19.380Z,1.54
2023-02-12T02:04:54.602Z,1.47
2023-02-12T02:07:22.372Z,1.47
2023-02-12T02:09:50.822Z,1.41
2023-02-12T02:12:37.187Z,1.37
2023-02-12T02:15:06.153Z,1.36
2023-02-12T02:17:39.932Z,1.35
2023-02-12T02:20:26.074Z,1.34
2023-02-12T02:23:12.075Z,1.37
2023-02-12T02:26:01.181Z,1.39
2023-02-12T02:28:44.092Z,1.42
2023-02-12T02:31:35.455Z,1.37
2023-02-12T02:34:28.202Z,1.36
2023-02-12T02:37:04.018Z,1.31
2023-02-12T02:39:40.037Z,1.27
2023-02-12T02:42:10.815Z,1.25
2023-02-12T02:44:47.285Z,1.26
2023-02-12T02:47:19.150Z,1.27
2023-02-12T02:49:56.207Z,1.25
2023-02-12T02:52:37.349Z,1.29
2023-02-12T02:55:11.202Z,1.36
2023-02-12T02:57:46.581Z,1.40
2023-02-12T03:00:22.271Z,1.44
2023-02-12T03:02:52.809Z,1.44
2023-02-12T03:05:30.073Z,1.38
2023-02-12T03:08:12.440Z,1.33
2023-02-12T03:10:45.782Z,1.28
2023-02-12T03:13:26.566Z,1.25
2023-02-12T03:16:06.377Z,1.22
2023-02-12T03:18:41.620Z,1.20
2023-02-12T03:21:17.940Z,1.18
2023-02-12T03:24:01.028Z,1.16
2023-02-12T03:26:42.442Z,1.16
2023-02-12T03:29:10.434Z,1.18
2023-02-12T03:32:09.721Z,1.20
2023-02-12T03:35:06.699Z,1.21
2023-02-12T03:37:43.710Z,1.23
2023-02-12T03:40:16.268Z,1.25
2023-02-12T03:43:20.793Z,1.23
2023-02-12T03:46:13.515Z,1.23
2023-02-12T03:48:56.722Z,1.23
2023-02-12T03:51:34.583Z,1.19
2023-02-12T03:54:04.390Z,1.16
2023-02-12T03:56:39.664Z,1.13
2023-02-12T03:59:07.618Z,1.11
2023-02-12T04:01:36.551Z,1.09
2023-02-12T04:04:06.796Z,1.09
2023-02-12T04:06:35.379Z,1.11
2023-02-12T04:09:09.596Z,1.08
2023-02-12T04:11:59.158Z,1.05
2023-02-12T04:14:31.410Z,1.04
2023-02-12T04:17:08.967Z,1.03
2023-02-12T04:20:10.446Z,1.03
2023-02-12T04:22:50.170Z,1.04
2023-02-12T04:25:39.415Z,1.04
2023-02-12T04:28:29.544Z,1.04
2023-02-12T04:31:07.948Z,1.03
2023-02-12T04:33:47.344Z,1.02
2023-02-12T04:36:23.736Z,1.07
2023-02-12T04:38:55.532Z,1.14
2023-02-12T04:41:25.691Z,1.21
2023-02-12T04:43:53.468Z,1.33
2023-02-12T04:46:21.190Z,1.74
2023-02-12T04:48:58.625Z,2.86
2023-02-12T04:51:26.500Z,3.63
2023-02-12T04:53:54.243Z,4.16
2023-02-12T04:56:21.948Z,4.73
2023-02-12T04:58:50.527Z,5.06
2023-02-12T05:01:18.292Z,5.36
2023-02-12T05:03:46.192Z,5.62
2023-02-12T05:06:13.992Z,5.75
2023-02-12T05:08:41.701Z,5.74
2023-02-12T05:11:10.353Z,5.47
2023-02-12T05:13:38.272Z,5.11
2023-02-12T05:16:07.360Z,4.83
2023-02-12T05:18:35.800Z,4.92
2023-02-12T05:21:05.602Z,5.81
2023-02-12T05:23:34.717Z,5.92
2023-02-12T05:26:05.783Z,5.70
2023-02-12T05:28:33.602Z,5.29
2023-02-12T05:31:03.548Z,4.85
2023-02-12T05:33:32.155Z,4.64
2023-02-12T05:36:10.837Z,4.47
2023-02-12T05:38:38.701Z,4.95
2023-02-12T05:41:15.160Z,5.30
2023-02-12T05:43:43.241Z,5.33
2023-02-12T05:46:12.158Z,5.54
2023-02-12T05:48:40.386Z,5.43
2023-02-12T05:51:11.967Z,5.21
2023-02-12T05:53:41.065Z,4.90
2023-02-12T05:56:11.976Z,4.62
2023-02-12T05:58:41.728Z,4.31
2023-02-12T06:01:14.269Z,3.98
2023-02-12T06:03:42.751Z,3.70
2023-02-12T06:06:10.912Z,3.43
2023-02-12T06:08:39.352Z,3.18
2023-02-12T06:11:11.022Z,3.04
2023-02-12T06:13:38.779Z,3.53
2023-02-12T06:16:07.001Z,4.08
2023-02-12T06:18:37.929Z,4.56
2023-02-12T06:21:06.104Z,5.05
2023-02-12T06:23:33.876Z,5.34
2023-02-12T06:26:01.566Z,5.73
2023-02-12T06:28:29.385Z,5.94
2023-02-12T06:30:57.246Z,5.19
2023-02-12T06:33:25.021Z,4.27
2023-02-12T06:35:52.889Z,3.57
2023-02-12T06:38:20.797Z,3.03
2023-02-12T06:40:48.754Z,2.62
2023-02-12T06:43:16.550Z,2.65
2023-02-12T06:45:44.400Z,3.26
2023-02-12T06:48:12.128Z,3.66
2023-02-12T06:50:39.824Z,3.83
2023-02-12T06:53:07.584Z,4.15
2023-02-12T06:55:35.363Z,4.62
2023-02-12T06:58:03.151Z,4.69
2023-02-12T07:00:30.925Z,4.42
2023-02-12T07:02:58.856Z,3.72
2023-02-12T07:05:26.752Z,3.14
2023-02-12T07:07:54.553Z,2.74
2023-02-12T07:10:22.254Z,2.45
2023-02-12T07:12:49.946Z,2.23
2023-02-12T07:15:17.698Z,2.07
2023-02-12T07:17:45.532Z,1.93
2023-02-12T07:20:13.592Z,2.08
2023-02-12T07:22:41.430Z,2.69
2023-02-12T07:25:09.302Z,3.05
2023-02-12T07:27:38.110Z,3.25
2023-02-12T07:30:07.456Z,3.49
2023-02-12T07:32:35.596Z,3.67
2023-02-12T07:35:03.434Z,3.80
2023-02-12T07:37:31.224Z,4.02
2023-02-12T07:39:58.953Z,4.27
2023-02-12T07:42:26.709Z,4.81
2023-02-12T07:44:54.400Z,4.94
2023-02-12T07:47:22.276Z,4.57
2023-02-12T07:49:50.139Z,4.05
2023-02-12T07:52:17.976Z,3.70
2023-02-12T07:54:45.750Z,3.44
2023-02-12T07:57:13.545Z,3.27
2023-02-12T07:59:41.308Z,3.17
2023-02-12T08:02:09.844Z,3.18
2023-02-12T08:04:37.717Z,3.24
2023-02-12T08:07:05.652Z,3.27
2023-02-12T08:09:33.410Z,3.45
2023-02-12T08:12:01.150Z,4.25
2023-02-12T08:14:29.301Z,5.18
2023-02-12T08:16:57.343Z,5.75
2023-02-12T08:19:26.826Z,5.96
2023-02-12T08:21:56.977Z,5.46
2023-02-12T08:24:25.639Z,5.00
2023-02-12T08:26:53.780Z,4.65
2023-02-12T08:29:25.586Z,4.37
2023-02-12T08:31:59.143Z,4.17
2023-02-12T08:34:29.607Z,3.98
2023-02-12T08:36:58.098Z,3.87
2023-02-12T08:39:28.764Z,4.04
2023-02-12T08:41:58.623Z,5.04
2023-02-12T08:44:26.609Z,6.03
2023-02-12T08:46:55.763Z,6.96
2023-02-12T08:49:26.768Z,7.72
2023-02-12T08:51:56.683Z,8.25
2023-02-12T08:54:26.949Z,8.02
2023-02-12T08:56:56.759Z,7.82
2023-02-12T08:59:24.977Z,7.66
2023-02-12T09:01:53.745Z,7.61
2023-02-12T09:04:27.354Z,7.65
2023-02-12T09:06:55.808Z,7.75
2023-02-12T09:09:23.617Z,8.02
2023-02-12T09:11:51.556Z,8.33
2023-02-12T09:14:26.045Z,8.61
2023-02-12T09:16:55.034Z,8.87
2023-02-12T09:19:23.144Z,9.21
2023-02-12T09:21:55.569Z,9.52
2023-02-12T09:24:25.641Z,9.84
2023-02-12T09:26:53.464Z,10.17
2023-02-12T09:29:21.371Z,10.40
2023-02-12T09:31:49.218Z,10.54
2023-02-12T09:34:17.216Z,10.65
2023-02-12T09:36:45.053Z,10.71
2023-02-12T09:39:12.823Z,10.56
2023-02-12T09:41:59.019Z,10.40
2023-02-12T09:44:26.758Z,10.35
2023-02-12T09:47:17.714Z,10.31
2023-02-12T09:50:23.893Z,10.15
2023-02-12T09:52:54.723Z,10.07
2023-02-12T09:55:29.357Z,10.11
2023-02-12T09:57:57.377Z,10.26
2023-02-12T10:00:29.063Z,10.34
2023-02-12T10:03:01.732Z,10.25
2023-02-12T10:05:43.303Z,10.09
2023-02-12T10:08:14.290Z,10.05
2023-02-12T10:10:53.354Z,10.10
2023-02-12T10:13:39.333Z,10.21
2023-02-12T10:16:20.502Z,10.34
2023-02-12T10:18:59.940Z,10.48
2023-02-12T10:22:12.564Z,10.52
2023-02-12T10:24:52.192Z,10.40
2023-02-12T10:27:38.199Z,10.15
2023-02-12T10:30:49.947Z,10.01
2023-02-12T10:33:26.909Z,10.17
2023-02-12T10:36:02.297Z,10.27
2023-02-12T10:38:36.432Z,10.29
2023-02-12T10:41:04.235Z,10.29
2023-02-12T10:43:32.567Z,10.38
2023-02-12T10:46:00.291Z,10.43
2023-02-12T10:48:36.932Z,10.34
2023-02-12T10:51:07.678Z,10.10
2023-02-12T10:53:38.600Z,9.98
2023-02-12T10:56:17.442Z,9.99
2023-02-12T10:58:59.716Z,9.97
2023-02-12T11:01:28.754Z,9.86
2023-02-12T11:03:58.817Z,9.98
2023-02-12T11:06:29.875Z,10.21
2023-02-12T11:08:59.112Z,10.36
2023-02-12T11:11:31.472Z,10.34
2023-02-12T11:14:16.817Z,10.33
2023-02-12T11:16:56.803Z,10.32
2023-02-12T11:19:30.456Z,10.36
2023-02-12T11:22:11.263Z,10.48
2023-02-12T11:24:39.020Z,10.76
2023-02-12T11:27:15.617Z,10.95
2023-02-12T11:29:44.604Z,10.94
2023-02-12T11:32:18.469Z,10.75
2023-02-12T11:35:14.935Z,10.57
2023-02-12T11:37:44.760Z,10.42
2023-02-12T11:40:25.478Z,10.35
2023-02-12T11:42:59.398Z,10.21
2023-02-12T11:45:34.570Z,10.05
2023-02-12T11:48:03.041Z,9.90
2023-02-12T11:50:35.178Z,9.76
2023-02-12T11:53:09.442Z,9.65
2023-02-12T11:55:40.934Z,9.51
2023-02-12T11:58:20.831Z,9.32
2023-02-12T12:01:20.304Z,9.06
2023-02-12T12:04:09.972Z,8.91
2023-02-12T12:06:44.420Z,8.79
2023-02-12T12:09:29.128Z,8.73
2023-02-12T12:12:03.004Z,8.73
2023-02-12T12:15:01.058Z,8.71
2023-02-12T12:18:04.348Z,8.61
2023-02-12T12:20:39.231Z,8.30
2023-02-12T12:23:17.421Z,8.04
2023-02-12T12:25:56.156Z,7.84
2023-02-12T12:28:42.057Z,7.73
2023-02-12T12:31:17.305Z,7.67
2023-02-12T12:33:52.972Z,7.56
2023-02-12T12:36:51.905Z,7.47
2023-02-12T12:39:34.918Z,7.48
2023-02-12T12:42:02.699Z,7.48
2023-02-12T12:45:03.196Z,7.41
2023-02-12T12:47:30.785Z,7.26
2023-02-12T12:50:21.993Z,7.09
2023-02-12T12:53:10.035Z,6.87
2023-02-12T12:56:15.153Z,6.67
2023-02-12T12:58:54.476Z,6.47
2023-02-12T13:01:36.364Z,6.34
2023-02-12T13:04:30.759Z,6.20
2023-02-12T13:07:32.603Z,6.09
2023-02-12T13:10:24.413Z,5.97
2023-02-12T13:13:01.366Z,5.83
2023-02-12T13:15:50.904Z,5.63
2023-02-12T13:18:36.746Z,5.40
2023-02-12T13:21:25.645Z,5.20
2023-02-12T13:24:02.558Z,5.10
2023-02-12T13:26:41.458Z,5.04
2023-02-12T13:29:19.107Z,4.92
2023-02-12T13:32:05.455Z,4.80
2023-02-12T13:34:36.715Z,4.71
2023-02-12T13:37:10.123Z,4.64
2023-02-12T13:39:41.601Z,4.56
2023-02-12T13:42:27.456Z,4.49
2023-02-12T13:45:07.715Z,4.41
2023-02-12T13:47:56.853Z,4.34
2023-02-12T13:50:43.264Z,4.29
2023-02-12T13:53:23.695Z,4.24
2023-02-12T13:55:54.618Z,4.20
2023-02-12T13:58:37.830Z,4.16
2023-02-12T14:01:12.563Z,4.14
2023-02-12T14:03:40.893Z,4.12
2023-02-12T14:06:18.113Z,4.10
2023-02-12T14:09:07.723Z,4.10
2023-02-12T14:11:48.571Z,4.13
2023-02-12T14:14:27.871Z,4.13
2023-02-12T14:16:55.634Z,4.10
2023-02-12T14:19:38.608Z,4.07
2023-02-12T14:22:32.844Z,4.03
2023-02-12T14:25:25.466Z,3.97
2023-02-12T14:27:55.432Z,3.92
2023-02-12T14:30:38.332Z,3.86
2023-02-12T14:33:06.736Z,3.81
2023-02-12T14:35:49.591Z,3.77
2023-02-12T14:38:19.805Z,3.74
2023-02-12T14:40:49.378Z,3.69
2023-02-12T14:43:56.973Z,3.64
2023-02-12T14:46:24.789Z,3.58
2023-02-12T14:49:05.913Z,3.54
2023-02-12T14:51:55.606Z,3.69
2023-02-12T14:54:37.086Z,4.52
2023-02-12T14:57:11.680Z,5.28
2023-02-12T14:59:43.580Z,5.45
2023-02-12T15:02:34.540Z,5.34
2023-02-12T15:05:06.857Z,5.14
2023-02-12T15:07:44.605Z,5.00
2023-02-12T15:10:20.262Z,4.92
2023-02-12T15:13:07.748Z,4.83
2023-02-12T15:15:49.306Z,4.78
2023-02-12T15:18:43.113Z,4.78
2023-02-12T15:21:23.037Z,4.63
2023-02-12T15:24:20.442Z,4.47
2023-02-12T15:26:51.690Z,4.31
2023-02-12T15:29:27.469Z,4.18
2023-02-12T15:31:59.032Z,4.11
2023-02-12T15:34:30.362Z,4.04
2023-02-12T15:37:01.828Z,3.88
2023-02-12T15:39:41.786Z,3.75
2023-02-12T15:42:37.908Z,3.61
2023-02-12T15:45:14.950Z,3.50
2023-02-12T15:47:44.919Z,3.38
2023-02-12T15:50:15.241Z,3.28
2023-02-12T15:52:46.416Z,3.20
2023-02-12T15:55:21.815Z,3.13
2023-02-12T15:57:58.477Z,3.05
2023-02-12T16:00:53.480Z,2.96
2023-02-12T16:03:36.297Z,2.86
2023-02-12T16:06:13.786Z,2.79
2023-02-12T16:08:45.604Z,2.70
2023-02-12T16:11:17.246Z,2.80
2023-02-12T16:13:59.427Z,3.05
2023-02-12T16:16:29.241Z,2.93
2023-02-12T16:19:20.388Z,2.81
2023-02-12T16:21:51.723Z,2.73
2023-02-12T16:24:49.557Z,2.65
2023-02-12T16:27:34.531Z,2.54
2023-02-12T16:30:06.184Z,2.43
2023-02-12T16:32:37.959Z,2.34
2023-02-12T16:35:12.097Z,2.23
2023-02-12T16:37:39.878Z,2.15
2023-02-12T16:40:23.116Z,2.13
2023-02-12T16:42:50.862Z,2.20
2023-02-12T16:45:27.703Z,2.17
2023-02-12T16:48:08.637Z,2.06
2023-02-12T16:50:43.471Z,2.10
2023-02-12T16:53:29.958Z,2.02
2023-02-12T16:55:59.054Z,1.86
2023-02-12T16:58:28.526Z,1.75
2023-02-12T17:00:59.352Z,1.68
2023-02-12T17:03:27.515Z,1.70
2023-02-12T17:05:55.857Z,1.83
2023-02-12T17:08:24.408Z,1.76
2023-02-12T17:10:52.419Z,1.65
2023-02-12T17:13:21.046Z,1.61
2023-02-12T17:15:58.309Z,1.58
2023-02-12T17:18:26.472Z,1.50
2023-02-12T17:20:57.789Z,1.47
2023-02-12T17:23:26.309Z,1.42
2023-02-12T17:25:54.820Z,1.36
2023-02-12T17:28:25.032Z,1.30
2023-02-12T17:30:54.069Z,1.24
2023-02-12T17:33:22.763Z,1.17
2023-02-12T17:35:50.558Z,1.13
2023-02-12T17:38:18.500Z,1.48
2023-02-12T17:40:46.316Z,1.50
2023-02-12T17:43:14.037Z,1.35
2023-02-12T17:45:43.372Z,1.18
2023-02-12T17:48:12.605Z,1.04
2023-02-12T17:50:40.905Z,0.94
2023-02-12T17:53:09.789Z,0.84
2023-02-12T17:55:41.333Z,0.75
2023-02-12T17:58:09.072Z,0.68
2023-02-12T18:00:36.874Z,0.63
2023-02-12T18:03:04.619Z,0.57
2023-02-12T18:05:32.506Z,0.52
2023-02-12T18:08:02.254Z,0.46
2023-02-12T18:10:30.088Z,0.41
2023-02-12T18:12:57.811Z,0.36
2023-02-12T18:15:25.516Z,0.33
2023-02-12T18:17:53.327Z,0.30
2023-02-12T18:20:21.238Z,0.28
2023-02-12T18:22:50.219Z,0.28
2023-02-12T18:25:18.964Z,0.29
2023-02-12T18:27:46.825Z,0.31
2023-02-12T18:30:15.120Z,0.35
2023-02-12T18:32:43.692Z,0.42
2023-02-12T18:35:11.657Z,0.48
2023-02-12T18:37:43.258Z,0.91
2023-02-12T18:40:12.148Z,1.30
2023-02-12T18:42:40.068Z,1.35
2023-02-12T18:45:08.369Z,1.34
2023-02-12T18:47:36.443Z,1.34
2023-02-12T18:50:04.563Z,1.38
2023-02-12T18:52:32.829Z,1.41
2023-02-12T18:55:00.749Z,1.44
2023-02-12T18:57:29.862Z,1.48
2023-02-12T18:59:57.707Z,1.53
2023-02-12T19:02:25.680Z,1.59
2023-02-12T19:04:53.798Z,1.63
2023-02-12T19:07:21.645Z,1.68
2023-02-12T19:09:49.754Z,1.73
2023-02-12T19:12:17.518Z,1.78
2023-02-12T19:14:45.734Z,1.84
2023-02-12T19:17:13.598Z,1.89
2023-02-12T19:19:41.478Z,1.94
2023-02-12T19:22:09.208Z,1.99
2023-02-12T19:24:46.166Z,2.04
2023-02-12T19:27:14.647Z,2.10
2023-02-12T19:29:42.380Z,2.14
2023-02-12T19:32:10.350Z,2.17
2023-02-12T19:34:38.365Z,2.21
2023-02-12T19:37:08.986Z,2.25
2023-02-12T19:39:38.019Z,2.29
2023-02-12T19:42:05.780Z,2.33
2023-02-12T19:44:33.565Z,2.37
2023-02-12T19:47:01.379Z,2.39
2023-02-12T19:49:29.242Z,2.43
2023-02-12T19:51:57.099Z,2.46
2023-02-12T19:54:25.270Z,2.49
2023-02-12T19:56:55.212Z,2.53
2023-02-12T19:59:25.395Z,2.56
2023-02-12T20:01:54.040Z,2.60
2023-02-12T20:04:23.802Z,2.63
2023-02-12T20:06:52.386Z,2.65
2023-02-12T20:09:22.084Z,2.68
2023-02-12T20:11:50.761Z,2.71
2023-02-12T20:14:20.811Z,2.74
2023-02-12T20:16:50.407Z,2.77
2023-02-12T20:19:22.965Z,2.84
2023-02-12T20:21:55.331Z,2.90
2023-02-12T20:24:30.972Z,2.90
2023-02-12T20:27:00.972Z,2.89
2023-02-12T20:29:28.956Z,2.91
2023-02-12T20:31:57.256Z,3.00
2023-02-12T20:34:25.203Z,3.09
2023-02-12T20:36:53.952Z,3.11
2023-02-12T20:39:21.998Z,3.09
2023-02-12T20:41:50.129Z,3.07
2023-02-12T20:44:20.577Z,3.07
2023-02-12T20:46:52.504Z,3.06
2023-02-12T20:49:24.497Z,3.08
2023-02-12T20:51:52.749Z,3.08
2023-02-12T20:54:21.170Z,3.10
2023-02-12T20:56:50.359Z,3.12
2023-02-12T20:59:18.972Z,3.14
2023-02-12T21:01:47.498Z,3.16
2023-02-12T21:04:17.796Z,3.19
2023-02-12T21:06:45.954Z,3.23
2023-02-12T21:09:14.909Z,3.26
2023-02-12T21:11:45.683Z,3.30
2023-02-12T21:14:24.007Z,3.31
2023-02-12T21:16:54.681Z,3.32
2023-02-12T21:19:22.531Z,3.33
2023-02-12T21:21:50.266Z,3.35
2023-02-12T21:24:21.577Z,3.37
2023-02-12T21:26:50.826Z,3.38
2023-02-12T21:29:19.474Z,3.41
2023-02-12T21:31:49.643Z,3.44
2023-02-12T21:34:21.177Z,3.46
2023-02-12T21:36:50.401Z,3.47
2023-02-12T21:39:24.882Z,3.48
2023-02-12T21:41:55.525Z,3.49
2023-02-12T21:44:24.744Z,3.50
2023-02-12T21:46:53.102Z,3.49
2023-02-12T21:49:28.268Z,3.47
2023-02-12T21:52:04.426Z,3.46
2023-02-12T21:54:32.426Z,3.45
2023-02-12T21:57:00.739Z,3.44
2023-02-12T21:59:31.758Z,3.44
2023-02-12T22:02:00.768Z,3.44
2023-02-12T22:04:29.240Z,3.44
2023-02-12T22:06:58.230Z,3.44
2023-02-12T22:09:26.165Z,3.45
2023-02-12T22:11:54.148Z,3.45
2023-02-12T22:14:22.602Z,3.46
2023-02-12T22:16:50.810Z,3.47
2023-02-12T22:19:18.708Z,3.48
2023-02-12T22:21:51.271Z,3.49
2023-02-12T22:24:20.015Z,3.51
2023-02-12T22:26:47.913Z,3.54
2023-02-12T22:29:16.274Z,3.55
2023-02-12T22:31:46.055Z,3.57
2023-02-12T22:34:17.073Z,3.59
2023-02-12T22:36:46.925Z,3.62
2023-02-12T22:39:15.380Z,3.63
2023-02-12T22:41:43.266Z,3.65
2023-02-12T22:44:12.982Z,3.67
2023-02-12T22:46:44.110Z,3.68
2023-02-12T22:49:12.000Z,3.69
2023-02-12T22:51:40.460Z,3.69
2023-02-12T22:54:13.921Z,3.70
2023-02-12T22:56:42.090Z,3.71
2023-02-12T22:59:11.114Z,3.72
2023-02-12T23:01:40.011Z,3.73
2023-02-12T23:04:12.454Z,3.75
2023-02-12T23:06:40.296Z,3.76
2023-02-12T23:09:12.622Z,3.77
2023-02-12T23:11:40.544Z,3.78
2023-02-12T23:14:08.367Z,3.79
2023-02-12T23:16:36.170Z,3.80
2023-02-12T23:19:03.954Z,3.82
2023-02-12T23:21:32.565Z,3.82
2023-02-12T23:24:00.458Z,3.84
2023-02-12T23:26:29.600Z,3.85
2023-02-12T23:28:57.658Z,3.87
2023-02-12T23:31:25.976Z,3.87
2023-02-12T23:33:54.066Z,3.89
2023-02-12T23:36:21.949Z,3.90
2023-02-12T23:38:49.696Z,3.91
2023-02-12T23:41:17.754Z,3.92
2023-02-12T23:43:45.654Z,3.93
2023-02-12T23:46:13.438Z,3.95
2023-02-12T23:48:41.322Z,3.97
2023-02-12T23:51:09.272Z,3.99
2023-02-12T23:53:37.110Z,4.01
2023-02-12T23:56:04.996Z,4.02
2023-02-12T23:58:32.711Z,4.04
